sensor_id;sensor_type;location;lat;lon;timestamp;P1;durP1;ratioP1;P2;durP2;ratioP2
69551;SDS011;63774;45.292;11.784;2023-09-30T00:02:12;7.40;;;4.80;;
69551;SDS011;63774;45.292;11.784;2023-09-30T00:04:38;9.20;;;5.60;;
69551;SDS011;63774;45.292;11.784;2023-09-30T00:07:04;8.90;;;5.10;;
69551;SDS011;63774;45.292;11.784;2023-09-30T00:09:30;7.90;;;5.20;;
69551;SDS011;63774;45.292;11.784;2023-09-30T00:11:56;7.00;;;5.10;;
69551;SDS011;63774;45.292;11.784;2023-09-30T00:14:21;8.00;;;5.50;;
69551;SDS011;63774;45.292;11.784;2023-09-30T00:16:46;7.60;;;5.20;;
69551;SDS011;63774;45.292;11.784;2023-09-30T00:19:12;8.10;;;5.10;;
69551;SDS011;63774;45.292;11.784;2023-09-30T00:21:39;8.30;;;4.80;;
69551;SDS011;63774;45.292;11.784;2023-09-30T00:24:05;7.90;;;4.80;;
69551;SDS011;63774;45.292;11.784;2023-09-30T00:26:31;9.30;;;5.00;;
69551;SDS011;63774;45.292;11.784;2023-09-30T00:28:56;9.60;;;4.80;;
69551;SDS011;63774;45.292;11.784;2023-09-30T00:31:22;7.30;;;4.50;;
69551;SDS011;63774;45.292;11.784;2023-09-30T00:33:47;6.90;;;4.70;;
69551;SDS011;63774;45.292;11.784;2023-09-30T00:36:13;7.70;;;4.70;;
69551;SDS011;63774;45.292;11.784;2023-09-30T00:38:39;9.30;;;5.00;;
69551;SDS011;63774;45.292;11.784;2023-09-30T00:41:05;7.30;;;4.70;;
69551;SDS011;63774;45.292;11.784;2023-09-30T00:43:32;8.00;;;4.60;;
69551;SDS011;63774;45.292;11.784;2023-09-30T00:46:02;7.70;;;4.60;;
69551;SDS011;63774;45.292;11.784;2023-09-30T00:48:32;8.60;;;4.70;;
69551;SDS011;63774;45.292;11.784;2023-09-30T00:50:59;7.50;;;4.60;;
69551;SDS011;63774;45.292;11.784;2023-09-30T00:53:25;7.40;;;4.60;;
69551;SDS011;63774;45.292;11.784;2023-09-30T00:55:51;6.70;;;4.40;;
69551;SDS011;63774;45.292;11.784;2023-09-30T00:58:19;7.40;;;4.80;;
69551;SDS011;63774;45.292;11.784;2023-09-30T01:00:45;10.20;;;5.40;;
69551;SDS011;63774;45.292;11.784;2023-09-30T01:03:12;7.30;;;4.80;;
69551;SDS011;63774;45.292;11.784;2023-09-30T01:05:37;7.20;;;4.70;;
69551;SDS011;63774;45.292;11.784;2023-09-30T01:08:03;9.20;;;5.20;;
69551;SDS011;63774;45.292;11.784;2023-09-30T01:10:29;7.20;;;5.00;;
69551;SDS011;63774;45.292;11.784;2023-09-30T01:12:54;8.50;;;4.80;;
69551;SDS011;63774;45.292;11.784;2023-09-30T01:15:20;6.70;;;4.70;;
69551;SDS011;63774;45.292;11.784;2023-09-30T01:17:45;8.80;;;5.20;;
69551;SDS011;63774;45.292;11.784;2023-09-30T01:20:11;8.40;;;4.70;;
69551;SDS011;63774;45.292;11.784;2023-09-30T01:22:41;6.90;;;5.00;;
69551;SDS011;63774;45.292;11.784;2023-09-30T01:25:10;6.80;;;4.90;;
69551;SDS011;63774;45.292;11.784;2023-09-30T01:27:35;9.70;;;5.30;;
69551;SDS011;63774;45.292;11.784;2023-09-30T01:30:00;6.80;;;5.00;;
69551;SDS011;63774;45.292;11.784;2023-09-30T01:32:26;7.90;;;5.10;;
69551;SDS011;63774;45.292;11.784;2023-09-30T01:34:51;9.20;;;5.20;;
69551;SDS011;63774;45.292;11.784;2023-09-30T01:37:17;7.80;;;5.40;;
69551;SDS011;63774;45.292;11.784;2023-09-30T01:39:42;8.60;;;5.50;;
69551;SDS011;63774;45.292;11.784;2023-09-30T01:42:10;8.00;;;5.30;;
69551;SDS011;63774;45.292;11.784;2023-09-30T01:44:36;8.30;;;4.90;;
69551;SDS011;63774;45.292;11.784;2023-09-30T01:47:01;8.60;;;4.70;;
69551;SDS011;63774;45.292;11.784;2023-09-30T01:49:28;10.00;;;5.10;;
69551;SDS011;63774;45.292;11.784;2023-09-30T01:51:54;9.00;;;5.80;;
69551;SDS011;63774;45.292;11.784;2023-09-30T01:54:19;10.20;;;5.20;;
69551;SDS011;63774;45.292;11.784;2023-09-30T01:56:45;10.10;;;5.50;;
69551;SDS011;63774;45.292;11.784;2023-09-30T01:59:10;10.20;;;5.60;;
69551;SDS011;63774;45.292;11.784;2023-09-30T02:01:36;8.60;;;5.40;;
69551;SDS011;63774;45.292;11.784;2023-09-30T02:04:01;10.60;;;6.00;;
69551;SDS011;63774;45.292;11.784;2023-09-30T02:06:27;10.40;;;5.60;;
69551;SDS011;63774;45.292;11.784;2023-09-30T02:08:53;9.40;;;5.90;;
69551;SDS011;63774;45.292;11.784;2023-09-30T02:11:18;13.40;;;5.60;;
69551;SDS011;63774;45.292;11.784;2023-09-30T02:13:44;8.10;;;5.80;;
69551;SDS011;63774;45.292;11.784;2023-09-30T02:16:13;7.00;;;5.20;;
69551;SDS011;63774;45.292;11.784;2023-09-30T02:18:39;7.60;;;5.20;;
69551;SDS011;63774;45.292;11.784;2023-09-30T02:21:07;8.40;;;5.20;;
69551;SDS011;63774;45.292;11.784;2023-09-30T02:23:34;9.20;;;5.20;;
69551;SDS011;63774;45.292;11.784;2023-09-30T02:26:01;7.00;;;5.40;;
69551;SDS011;63774;45.292;11.784;2023-09-30T02:28:27;9.10;;;5.50;;
69551;SDS011;63774;45.292;11.784;2023-09-30T02:30:53;9.30;;;5.40;;
69551;SDS011;63774;45.292;11.784;2023-09-30T02:33:19;8.90;;;5.70;;
69551;SDS011;63774;45.292;11.784;2023-09-30T02:35:45;8.80;;;5.60;;
69551;SDS011;63774;45.292;11.784;2023-09-30T02:38:11;8.50;;;5.50;;
69551;SDS011;63774;45.292;11.784;2023-09-30T02:40:37;8.70;;;5.70;;
69551;SDS011;63774;45.292;11.784;2023-09-30T02:43:03;9.00;;;5.60;;
69551;SDS011;63774;45.292;11.784;2023-09-30T02:45:29;8.10;;;5.40;;
69551;SDS011;63774;45.292;11.784;2023-09-30T02:47:55;7.20;;;4.90;;
69551;SDS011;63774;45.292;11.784;2023-09-30T02:50:20;11.90;;;5.30;;
69551;SDS011;63774;45.292;11.784;2023-09-30T02:52:46;9.50;;;5.70;;
69551;SDS011;63774;45.292;11.784;2023-09-30T02:55:12;7.90;;;5.40;;
69551;SDS011;63774;45.292;11.784;2023-09-30T02:57:38;11.20;;;5.60;;
69551;SDS011;63774;45.292;11.784;2023-09-30T03:00:08;8.20;;;5.40;;
69551;SDS011;63774;45.292;11.784;2023-09-30T03:02:50;10.20;;;5.90;;
69551;SDS011;63774;45.292;11.784;2023-09-30T03:05:17;9.20;;;5.30;;
69551;SDS011;63774;45.292;11.784;2023-09-30T03:07:43;8.80;;;5.40;;
69551;SDS011;63774;45.292;11.784;2023-09-30T03:10:09;9.90;;;5.70;;
69551;SDS011;63774;45.292;11.784;2023-09-30T03:12:35;8.20;;;5.60;;
69551;SDS011;63774;45.292;11.784;2023-09-30T03:15:00;10.00;;;5.80;;
69551;SDS011;63774;45.292;11.784;2023-09-30T03:17:29;12.40;;;6.00;;
69551;SDS011;63774;45.292;11.784;2023-09-30T03:19:54;6.80;;;5.00;;
69551;SDS011;63774;45.292;11.784;2023-09-30T03:22:22;7.30;;;5.60;;
69551;SDS011;63774;45.292;11.784;2023-09-30T03:24:47;9.20;;;5.60;;
69551;SDS011;63774;45.292;11.784;2023-09-30T03:27:13;9.50;;;5.70;;
69551;SDS011;63774;45.292;11.784;2023-09-30T03:29:40;11.50;;;5.80;;
69551;SDS011;63774;45.292;11.784;2023-09-30T03:32:06;8.60;;;5.30;;
69551;SDS011;63774;45.292;11.784;2023-09-30T03:34:31;12.10;;;5.30;;
69551;SDS011;63774;45.292;11.784;2023-09-30T03:37:01;7.00;;;5.10;;
69551;SDS011;63774;45.292;11.784;2023-09-30T03:39:26;7.30;;;5.20;;
69551;SDS011;63774;45.292;11.784;2023-09-30T03:41:55;8.50;;;5.60;;
69551;SDS011;63774;45.292;11.784;2023-09-30T03:44:21;7.80;;;5.10;;
69551;SDS011;63774;45.292;11.784;2023-09-30T03:46:53;13.30;;;5.70;;
69551;SDS011;63774;45.292;11.784;2023-09-30T03:49:19;9.70;;;5.20;;
69551;SDS011;63774;45.292;11.784;2023-09-30T03:51:47;9.70;;;5.10;;
69551;SDS011;63774;45.292;11.784;2023-09-30T03:54:15;11.30;;;5.70;;
69551;SDS011;63774;45.292;11.784;2023-09-30T03:56:43;9.70;;;5.70;;
69551;SDS011;63774;45.292;11.784;2023-09-30T03:59:11;9.10;;;5.50;;
69551;SDS011;63774;45.292;11.784;2023-09-30T04:01:37;7.90;;;5.30;;
69551;SDS011;63774;45.292;11.784;2023-09-30T04:04:06;8.30;;;5.70;;
69551;SDS011;63774;45.292;11.784;2023-09-30T04:06:33;9.80;;;5.60;;
69551;SDS011;63774;45.292;11.784;2023-09-30T04:09:01;8.70;;;5.30;;
69551;SDS011;63774;45.292;11.784;2023-09-30T04:11:28;8.90;;;5.50;;
69551;SDS011;63774;45.292;11.784;2023-09-30T04:13:54;9.80;;;5.50;;
69551;SDS011;63774;45.292;11.784;2023-09-30T04:16:20;7.50;;;5.50;;
69551;SDS011;63774;45.292;11.784;2023-09-30T04:18:46;9.80;;;5.50;;
69551;SDS011;63774;45.292;11.784;2023-09-30T04:21:11;8.90;;;5.50;;
69551;SDS011;63774;45.292;11.784;2023-09-30T04:23:36;9.00;;;5.10;;
69551;SDS011;63774;45.292;11.784;2023-09-30T04:26:02;6.90;;;5.20;;
69551;SDS011;63774;45.292;11.784;2023-09-30T04:28:28;7.00;;;5.40;;
69551;SDS011;63774;45.292;11.784;2023-09-30T04:30:54;8.40;;;5.40;;
69551;SDS011;63774;45.292;11.784;2023-09-30T04:33:19;7.80;;;5.20;;
69551;SDS011;63774;45.292;11.784;2023-09-30T04:35:49;7.70;;;5.60;;
69551;SDS011;63774;45.292;11.784;2023-09-30T04:38:15;11.50;;;5.50;;
69551;SDS011;63774;45.292;11.784;2023-09-30T04:40:40;6.60;;;5.10;;
69551;SDS011;63774;45.292;11.784;2023-09-30T04:43:08;7.40;;;5.00;;
69551;SDS011;63774;45.292;11.784;2023-09-30T04:45:34;9.20;;;5.40;;
69551;SDS011;63774;45.292;11.784;2023-09-30T04:47:59;7.40;;;5.40;;
69551;SDS011;63774;45.292;11.784;2023-09-30T04:50:27;7.80;;;5.40;;
69551;SDS011;63774;45.292;11.784;2023-09-30T04:52:53;10.20;;;5.90;;
69551;SDS011;63774;45.292;11.784;2023-09-30T04:55:18;8.70;;;5.70;;
69551;SDS011;63774;45.292;11.784;2023-09-30T04:57:45;9.90;;;5.20;;
69551;SDS011;63774;45.292;11.784;2023-09-30T05:00:14;7.00;;;5.20;;
69551;SDS011;63774;45.292;11.784;2023-09-30T05:02:43;8.80;;;5.30;;
69551;SDS011;63774;45.292;11.784;2023-09-30T05:05:10;8.50;;;5.10;;
69551;SDS011;63774;45.292;11.784;2023-09-30T05:07:36;11.80;;;5.30;;
69551;SDS011;63774;45.292;11.784;2023-09-30T05:10:01;8.90;;;5.20;;
69551;SDS011;63774;45.292;11.784;2023-09-30T05:12:31;10.90;;;5.50;;
69551;SDS011;63774;45.292;11.784;2023-09-30T05:14:58;9.00;;;5.30;;
69551;SDS011;63774;45.292;11.784;2023-09-30T05:17:24;8.50;;;5.40;;
69551;SDS011;63774;45.292;11.784;2023-09-30T05:19:50;9.20;;;5.50;;
69551;SDS011;63774;45.292;11.784;2023-09-30T05:22:15;8.70;;;5.70;;
69551;SDS011;63774;45.292;11.784;2023-09-30T05:24:43;8.60;;;5.50;;
69551;SDS011;63774;45.292;11.784;2023-09-30T05:27:09;9.60;;;5.40;;
69551;SDS011;63774;45.292;11.784;2023-09-30T05:29:34;7.10;;;5.40;;
69551;SDS011;63774;45.292;11.784;2023-09-30T05:32:01;8.90;;;6.10;;
69551;SDS011;63774;45.292;11.784;2023-09-30T05:34:26;9.10;;;5.80;;
69551;SDS011;63774;45.292;11.784;2023-09-30T05:36:53;10.30;;;5.80;;
69551;SDS011;63774;45.292;11.784;2023-09-30T05:39:18;10.10;;;5.80;;
69551;SDS011;63774;45.292;11.784;2023-09-30T05:41:45;8.10;;;5.80;;
69551;SDS011;63774;45.292;11.784;2023-09-30T05:44:12;8.30;;;5.40;;
69551;SDS011;63774;45.292;11.784;2023-09-30T05:46:39;9.60;;;5.70;;
69551;SDS011;63774;45.292;11.784;2023-09-30T05:49:05;9.70;;;5.90;;
69551;SDS011;63774;45.292;11.784;2023-09-30T05:51:36;8.80;;;5.40;;
69551;SDS011;63774;45.292;11.784;2023-09-30T05:54:01;9.50;;;5.90;;
69551;SDS011;63774;45.292;11.784;2023-09-30T05:56:29;7.70;;;5.20;;
69551;SDS011;63774;45.292;11.784;2023-09-30T05:58:54;10.30;;;5.60;;
69551;SDS011;63774;45.292;11.784;2023-09-30T06:01:20;8.80;;;5.80;;
69551;SDS011;63774;45.292;11.784;2023-09-30T06:03:46;8.20;;;5.90;;
69551;SDS011;63774;45.292;11.784;2023-09-30T06:06:14;10.90;;;6.10;;
69551;SDS011;63774;45.292;11.784;2023-09-30T06:08:44;10.60;;;6.20;;
69551;SDS011;63774;45.292;11.784;2023-09-30T06:11:19;10.40;;;6.10;;
69551;SDS011;63774;45.292;11.784;2023-09-30T06:13:49;11.20;;;6.30;;
69551;SDS011;63774;45.292;11.784;2023-09-30T06:16:16;9.90;;;6.90;;
69551;SDS011;63774;45.292;11.784;2023-09-30T06:18:43;10.70;;;7.10;;
69551;SDS011;63774;45.292;11.784;2023-09-30T06:21:10;11.80;;;6.90;;
69551;SDS011;63774;45.292;11.784;2023-09-30T06:23:35;11.50;;;6.80;;
69551;SDS011;63774;45.292;11.784;2023-09-30T06:26:01;11.20;;;7.10;;
69551;SDS011;63774;45.292;11.784;2023-09-30T06:28:29;12.10;;;7.20;;
69551;SDS011;63774;45.292;11.784;2023-09-30T06:30:56;10.30;;;7.00;;
69551;SDS011;63774;45.292;11.784;2023-09-30T06:33:22;10.40;;;6.70;;
69551;SDS011;63774;45.292;11.784;2023-09-30T06:35:48;9.90;;;6.90;;
69551;SDS011;63774;45.292;11.784;2023-09-30T06:38:19;11.40;;;6.70;;
69551;SDS011;63774;45.292;11.784;2023-09-30T06:40:45;12.10;;;6.80;;
69551;SDS011;63774;45.292;11.784;2023-09-30T06:43:13;11.70;;;6.60;;
69551;SDS011;63774;45.292;11.784;2023-09-30T06:45:41;13.30;;;6.70;;
69551;SDS011;63774;45.292;11.784;2023-09-30T06:48:11;12.20;;;7.90;;
69551;SDS011;63774;45.292;11.784;2023-09-30T06:53:11;10.80;;;7.30;;
69551;SDS011;63774;45.292;11.784;2023-09-30T06:55:37;12.00;;;7.00;;
69551;SDS011;63774;45.292;11.784;2023-09-30T06:58:04;10.50;;;6.90;;
69551;SDS011;63774;45.292;11.784;2023-09-30T07:00:33;10.00;;;6.90;;
69551;SDS011;63774;45.292;11.784;2023-09-30T07:02:59;11.60;;;6.80;;
69551;SDS011;63774;45.292;11.784;2023-09-30T07:05:26;11.00;;;7.00;;
69551;SDS011;63774;45.292;11.784;2023-09-30T07:07:53;11.20;;;7.30;;
69551;SDS011;63774;45.292;11.784;2023-09-30T07:10:18;9.70;;;6.60;;
69551;SDS011;63774;45.292;11.784;2023-09-30T07:12:44;12.40;;;7.00;;
69551;SDS011;63774;45.292;11.784;2023-09-30T07:15:09;8.50;;;6.40;;
69551;SDS011;63774;45.292;11.784;2023-09-30T07:17:36;9.20;;;6.10;;
69551;SDS011;63774;45.292;11.784;2023-09-30T07:20:03;10.00;;;6.40;;
69551;SDS011;63774;45.292;11.784;2023-09-30T07:22:30;9.80;;;5.90;;
69551;SDS011;63774;45.292;11.784;2023-09-30T07:24:56;9.50;;;5.70;;
69551;SDS011;63774;45.292;11.784;2023-09-30T07:27:23;10.00;;;5.70;;
69551;SDS011;63774;45.292;11.784;2023-09-30T07:29:49;10.10;;;5.90;;
69551;SDS011;63774;45.292;11.784;2023-09-30T07:32:15;8.90;;;5.50;;
69551;SDS011;63774;45.292;11.784;2023-09-30T07:34:41;10.80;;;5.40;;
69551;SDS011;63774;45.292;11.784;2023-09-30T07:37:08;8.60;;;5.50;;
69551;SDS011;63774;45.292;11.784;2023-09-30T07:39:35;9.90;;;5.80;;
69551;SDS011;63774;45.292;11.784;2023-09-30T07:42:01;10.40;;;5.60;;
69551;SDS011;63774;45.292;11.784;2023-09-30T07:44:27;9.10;;;5.80;;
69551;SDS011;63774;45.292;11.784;2023-09-30T07:46:53;9.50;;;5.60;;
69551;SDS011;63774;45.292;11.784;2023-09-30T07:49:18;9.40;;;5.30;;
69551;SDS011;63774;45.292;11.784;2023-09-30T07:51:44;9.00;;;5.30;;
69551;SDS011;63774;45.292;11.784;2023-09-30T07:54:11;10.30;;;5.10;;
69551;SDS011;63774;45.292;11.784;2023-09-30T07:56:37;9.10;;;5.20;;
69551;SDS011;63774;45.292;11.784;2023-09-30T07:59:03;9.50;;;5.20;;
69551;SDS011;63774;45.292;11.784;2023-09-30T08:01:30;7.70;;;5.70;;
69551;SDS011;63774;45.292;11.784;2023-09-30T08:03:56;10.30;;;5.70;;
69551;SDS011;63774;45.292;11.784;2023-09-30T08:06:22;12.80;;;5.70;;
69551;SDS011;63774;45.292;11.784;2023-09-30T08:08:48;9.80;;;5.70;;
69551;SDS011;63774;45.292;11.784;2023-09-30T08:11:14;10.20;;;5.60;;
69551;SDS011;63774;45.292;11.784;2023-09-30T08:13:40;8.70;;;5.20;;
69551;SDS011;63774;45.292;11.784;2023-09-30T08:16:05;8.30;;;5.20;;
69551;SDS011;63774;45.292;11.784;2023-09-30T08:18:32;9.00;;;5.20;;
69551;SDS011;63774;45.292;11.784;2023-09-30T08:20:57;8.10;;;5.60;;
69551;SDS011;63774;45.292;11.784;2023-09-30T08:23:23;10.60;;;5.30;;
69551;SDS011;63774;45.292;11.784;2023-09-30T08:25:48;10.10;;;5.60;;
69551;SDS011;63774;45.292;11.784;2023-09-30T08:28:14;8.30;;;5.50;;
69551;SDS011;63774;45.292;11.784;2023-09-30T08:30:39;8.80;;;5.80;;
69551;SDS011;63774;45.292;11.784;2023-09-30T08:33:05;11.70;;;5.20;;
69551;SDS011;63774;45.292;11.784;2023-09-30T08:35:34;6.70;;;4.90;;
69551;SDS011;63774;45.292;11.784;2023-09-30T08:38:01;7.00;;;5.20;;
69551;SDS011;63774;45.292;11.784;2023-09-30T08:40:27;11.10;;;5.50;;
69551;SDS011;63774;45.292;11.784;2023-09-30T08:42:53;12.50;;;5.60;;
69551;SDS011;63774;45.292;11.784;2023-09-30T08:45:18;11.50;;;5.60;;
69551;SDS011;63774;45.292;11.784;2023-09-30T08:47:44;10.50;;;5.10;;
69551;SDS011;63774;45.292;11.784;2023-09-30T08:50:11;9.40;;;5.20;;
69551;SDS011;63774;45.292;11.784;2023-09-30T08:52:41;8.00;;;5.30;;
69551;SDS011;63774;45.292;11.784;2023-09-30T08:55:09;10.70;;;5.80;;
69551;SDS011;63774;45.292;11.784;2023-09-30T08:57:39;9.50;;;5.50;;
69551;SDS011;63774;45.292;11.784;2023-09-30T09:00:06;8.50;;;5.00;;
69551;SDS011;63774;45.292;11.784;2023-09-30T09:02:36;8.20;;;5.10;;
69551;SDS011;63774;45.292;11.784;2023-09-30T09:05:03;8.50;;;5.20;;
69551;SDS011;63774;45.292;11.784;2023-09-30T09:07:29;8.90;;;5.30;;
69551;SDS011;63774;45.292;11.784;2023-09-30T09:10:28;10.00;;;5.30;;
69551;SDS011;63774;45.292;11.784;2023-09-30T09:12:54;9.80;;;5.20;;
69551;SDS011;63774;45.292;11.784;2023-09-30T09:15:26;9.80;;;5.00;;
69551;SDS011;63774;45.292;11.784;2023-09-30T09:17:56;11.10;;;6.00;;
69551;SDS011;63774;45.292;11.784;2023-09-30T09:20:23;8.60;;;5.20;;
69551;SDS011;63774;45.292;11.784;2023-09-30T09:22:54;8.20;;;5.30;;
69551;SDS011;63774;45.292;11.784;2023-09-30T09:25:24;7.90;;;5.20;;
69551;SDS011;63774;45.292;11.784;2023-09-30T09:27:50;9.60;;;5.70;;
69551;SDS011;63774;45.292;11.784;2023-09-30T09:30:20;10.70;;;5.60;;
69551;SDS011;63774;45.292;11.784;2023-09-30T09:35:19;8.00;;;5.30;;
69551;SDS011;63774;45.292;11.784;2023-09-30T09:37:54;9.80;;;5.20;;
69551;SDS011;63774;45.292;11.784;2023-09-30T09:40:24;9.20;;;5.20;;
69551;SDS011;63774;45.292;11.784;2023-09-30T09:42:51;7.80;;;4.70;;
69551;SDS011;63774;45.292;11.784;2023-09-30T09:45:20;9.60;;;5.20;;
69551;SDS011;63774;45.292;11.784;2023-09-30T09:47:50;8.20;;;5.10;;
69551;SDS011;63774;45.292;11.784;2023-09-30T09:50:17;8.70;;;5.30;;
69551;SDS011;63774;45.292;11.784;2023-09-30T09:52:51;18.10;;;7.30;;
69551;SDS011;63774;45.292;11.784;2023-09-30T09:55:19;52.80;;;14.40;;
69551;SDS011;63774;45.292;11.784;2023-09-30T09:57:47;78.20;;;19.90;;
69551;SDS011;63774;45.292;11.784;2023-09-30T10:00:21;80.90;;;20.60;;
69551;SDS011;63774;45.292;11.784;2023-09-30T10:02:49;80.40;;;20.70;;
69551;SDS011;63774;45.292;11.784;2023-09-30T10:05:15;74.20;;;19.50;;
69551;SDS011;63774;45.292;11.784;2023-09-30T10:10:28;56.40;;;15.70;;
69551;SDS011;63774;45.292;11.784;2023-09-30T10:12:56;50.10;;;14.70;;
69551;SDS011;63774;45.292;11.784;2023-09-30T10:18:00;40.80;;;12.10;;
69551;SDS011;63774;45.292;11.784;2023-09-30T10:20:31;35.50;;;11.30;;
69551;SDS011;63774;45.292;11.784;2023-09-30T10:25:48;25.90;;;10.50;;
69551;SDS011;63774;45.292;11.784;2023-09-30T10:31:22;21.10;;;8.50;;
69551;SDS011;63774;45.292;11.784;2023-09-30T10:36:46;17.90;;;7.60;;
69551;SDS011;63774;45.292;11.784;2023-09-30T10:39:12;17.50;;;7.10;;
69551;SDS011;63774;45.292;11.784;2023-09-30T10:46:50;16.60;;;6.60;;
69551;SDS011;63774;45.292;11.784;2023-09-30T10:54:21;12.10;;;6.00;;
69551;SDS011;63774;45.292;11.784;2023-09-30T10:56:52;9.10;;;5.70;;
69551;SDS011;63774;45.292;11.784;2023-09-30T10:59:28;10.70;;;5.40;;
69551;SDS011;63774;45.292;11.784;2023-09-30T11:02:00;10.70;;;5.30;;
69551;SDS011;63774;45.292;11.784;2023-09-30T11:04:26;11.40;;;5.70;;
69551;SDS011;63774;45.292;11.784;2023-09-30T11:06:54;8.60;;;5.90;;
69551;SDS011;63774;45.292;11.784;2023-09-30T11:09:20;14.80;;;5.70;;
69551;SDS011;63774;45.292;11.784;2023-09-30T11:11:51;15.60;;;5.70;;
69551;SDS011;63774;45.292;11.784;2023-09-30T11:14:22;9.60;;;5.90;;
69551;SDS011;63774;45.292;11.784;2023-09-30T11:16:49;8.90;;;5.40;;
69551;SDS011;63774;45.292;11.784;2023-09-30T11:19:16;6.80;;;5.10;;
69551;SDS011;63774;45.292;11.784;2023-09-30T11:21:42;10.20;;;5.70;;
69551;SDS011;63774;45.292;11.784;2023-09-30T11:24:11;8.80;;;5.20;;
69551;SDS011;63774;45.292;11.784;2023-09-30T11:26:38;10.20;;;5.10;;
69551;SDS011;63774;45.292;11.784;2023-09-30T11:29:10;11.50;;;5.80;;
69551;SDS011;63774;45.292;11.784;2023-09-30T11:31:42;9.80;;;5.60;;
69551;SDS011;63774;45.292;11.784;2023-09-30T11:34:10;9.30;;;5.10;;
69551;SDS011;63774;45.292;11.784;2023-09-30T11:36:37;8.70;;;5.60;;
69551;SDS011;63774;45.292;11.784;2023-09-30T11:39:05;7.80;;;5.50;;
69551;SDS011;63774;45.292;11.784;2023-09-30T11:41:34;8.30;;;5.50;;
69551;SDS011;63774;45.292;11.784;2023-09-30T11:44:11;9.20;;;5.30;;
69551;SDS011;63774;45.292;11.784;2023-09-30T11:46:51;9.40;;;5.50;;
69551;SDS011;63774;45.292;11.784;2023-09-30T11:49:52;10.40;;;5.30;;
69551;SDS011;63774;45.292;11.784;2023-09-30T11:52:25;9.10;;;5.70;;
69551;SDS011;63774;45.292;11.784;2023-09-30T11:54:52;8.30;;;5.50;;
69551;SDS011;63774;45.292;11.784;2023-09-30T11:57:18;8.20;;;5.00;;
69551;SDS011;63774;45.292;11.784;2023-09-30T11:59:44;8.20;;;5.20;;
69551;SDS011;63774;45.292;11.784;2023-09-30T12:02:11;11.50;;;5.70;;
69551;SDS011;63774;45.292;11.784;2023-09-30T12:04:43;9.70;;;5.10;;
69551;SDS011;63774;45.292;11.784;2023-09-30T12:07:10;7.70;;;5.20;;
69551;SDS011;63774;45.292;11.784;2023-09-30T12:09:35;10.20;;;5.40;;
69551;SDS011;63774;45.292;11.784;2023-09-30T12:12:03;10.10;;;5.20;;
69551;SDS011;63774;45.292;11.784;2023-09-30T12:14:29;8.90;;;5.70;;
69551;SDS011;63774;45.292;11.784;2023-09-30T12:16:59;11.10;;;5.60;;
69551;SDS011;63774;45.292;11.784;2023-09-30T12:19:25;8.10;;;4.90;;
69551;SDS011;63774;45.292;11.784;2023-09-30T12:21:51;8.80;;;5.40;;
69551;SDS011;63774;45.292;11.784;2023-09-30T12:24:17;8.00;;;5.00;;
69551;SDS011;63774;45.292;11.784;2023-09-30T12:26:48;10.80;;;4.90;;
69551;SDS011;63774;45.292;11.784;2023-09-30T12:31:46;8.00;;;4.90;;
69551;SDS011;63774;45.292;11.784;2023-09-30T12:34:13;7.50;;;5.10;;
69551;SDS011;63774;45.292;11.784;2023-09-30T12:36:39;7.20;;;4.90;;
69551;SDS011;63774;45.292;11.784;2023-09-30T12:39:05;7.70;;;4.80;;
69551;SDS011;63774;45.292;11.784;2023-09-30T12:41:39;7.60;;;4.80;;
69551;SDS011;63774;45.292;11.784;2023-09-30T12:44:05;6.70;;;4.70;;
69551;SDS011;63774;45.292;11.784;2023-09-30T12:46:33;10.20;;;7.40;;
69551;SDS011;63774;45.292;11.784;2023-09-30T12:49:02;12.60;;;8.10;;
69551;SDS011;63774;45.292;11.784;2023-09-30T12:51:31;9.50;;;7.30;;
69551;SDS011;63774;45.292;11.784;2023-09-30T12:53:57;9.40;;;6.80;;
69551;SDS011;63774;45.292;11.784;2023-09-30T12:56:24;12.50;;;7.40;;
69551;SDS011;63774;45.292;11.784;2023-09-30T12:58:50;8.70;;;6.90;;
69551;SDS011;63774;45.292;11.784;2023-09-30T13:01:16;10.70;;;6.60;;
69551;SDS011;63774;45.292;11.784;2023-09-30T13:03:44;8.80;;;6.10;;
69551;SDS011;63774;45.292;11.784;2023-09-30T13:06:10;9.00;;;6.50;;
69551;SDS011;63774;45.292;11.784;2023-09-30T13:08:35;9.00;;;7.00;;
69551;SDS011;63774;45.292;11.784;2023-09-30T13:11:01;14.00;;;6.70;;
69551;SDS011;63774;45.292;11.784;2023-09-30T13:13:28;10.90;;;6.70;;
69551;SDS011;63774;45.292;11.784;2023-09-30T13:15:59;9.60;;;6.80;;
69551;SDS011;63774;45.292;11.784;2023-09-30T13:18:27;10.10;;;7.20;;
69551;SDS011;63774;45.292;11.784;2023-09-30T13:20:52;8.80;;;6.50;;
69551;SDS011;63774;45.292;11.784;2023-09-30T13:23:18;10.90;;;7.60;;
69551;SDS011;63774;45.292;11.784;2023-09-30T13:25:44;10.90;;;7.60;;
69551;SDS011;63774;45.292;11.784;2023-09-30T13:28:10;9.10;;;7.00;;
69551;SDS011;63774;45.292;11.784;2023-09-30T13:30:37;9.40;;;6.70;;
69551;SDS011;63774;45.292;11.784;2023-09-30T13:33:03;9.00;;;6.40;;
69551;SDS011;63774;45.292;11.784;2023-09-30T13:35:28;9.70;;;7.00;;
69551;SDS011;63774;45.292;11.784;2023-09-30T13:37:54;11.60;;;6.70;;
69551;SDS011;63774;45.292;11.784;2023-09-30T13:40:19;13.00;;;7.10;;
69551;SDS011;63774;45.292;11.784;2023-09-30T13:42:45;8.70;;;6.40;;
69551;SDS011;63774;45.292;11.784;2023-09-30T13:45:12;11.30;;;6.60;;
69551;SDS011;63774;45.292;11.784;2023-09-30T13:47:38;9.80;;;6.80;;
69551;SDS011;63774;45.292;11.784;2023-09-30T13:50:04;9.90;;;6.40;;
69551;SDS011;63774;45.292;11.784;2023-09-30T13:52:33;10.30;;;6.80;;
69551;SDS011;63774;45.292;11.784;2023-09-30T13:54:59;11.50;;;6.80;;
69551;SDS011;63774;45.292;11.784;2023-09-30T13:57:25;10.20;;;6.80;;
69551;SDS011;63774;45.292;11.784;2023-09-30T13:59:50;10.20;;;6.50;;
69551;SDS011;63774;45.292;11.784;2023-09-30T14:02:16;9.40;;;6.90;;
69551;SDS011;63774;45.292;11.784;2023-09-30T14:04:41;9.60;;;6.30;;
69551;SDS011;63774;45.292;11.784;2023-09-30T14:07:07;10.50;;;6.40;;
69551;SDS011;63774;45.292;11.784;2023-09-30T14:09:33;10.40;;;6.90;;
69551;SDS011;63774;45.292;11.784;2023-09-30T14:11:58;10.50;;;6.00;;
69551;SDS011;63774;45.292;11.784;2023-09-30T14:14:25;10.40;;;6.00;;
69551;SDS011;63774;45.292;11.784;2023-09-30T14:16:51;10.00;;;5.90;;
69551;SDS011;63774;45.292;11.784;2023-09-30T14:19:17;9.40;;;6.50;;
69551;SDS011;63774;45.292;11.784;2023-09-30T14:21:42;10.50;;;6.30;;
69551;SDS011;63774;45.292;11.784;2023-09-30T14:24:08;9.40;;;6.50;;
69551;SDS011;63774;45.292;11.784;2023-09-30T14:26:33;9.30;;;6.60;;
69551;SDS011;63774;45.292;11.784;2023-09-30T14:28:59;8.70;;;6.30;;
69551;SDS011;63774;45.292;11.784;2023-09-30T14:31:25;8.90;;;6.40;;
69551;SDS011;63774;45.292;11.784;2023-09-30T14:33:51;8.90;;;5.90;;
69551;SDS011;63774;45.292;11.784;2023-09-30T14:36:17;8.80;;;5.70;;
69551;SDS011;63774;45.292;11.784;2023-09-30T14:38:43;8.40;;;5.80;;
69551;SDS011;63774;45.292;11.784;2023-09-30T14:41:14;12.60;;;6.30;;
69551;SDS011;63774;45.292;11.784;2023-09-30T14:43:40;12.00;;;6.10;;
69551;SDS011;63774;45.292;11.784;2023-09-30T14:46:06;10.30;;;5.80;;
69551;SDS011;63774;45.292;11.784;2023-09-30T14:48:33;9.10;;;6.00;;
69551;SDS011;63774;45.292;11.784;2023-09-30T14:50:59;9.20;;;5.60;;
69551;SDS011;63774;45.292;11.784;2023-09-30T14:53:24;9.90;;;5.50;;
69551;SDS011;63774;45.292;11.784;2023-09-30T14:55:50;8.50;;;5.90;;
69551;SDS011;63774;45.292;11.784;2023-09-30T14:58:16;9.60;;;5.80;;
69551;SDS011;63774;45.292;11.784;2023-09-30T15:00:42;8.40;;;6.00;;